sensor_id;sensor_type;location;lat;lon;timestamp;temperature;humidity
32506;DHT22;18955;51.224;8.482;2023-05-16T00:01:43;13.50;82.10
32506;DHT22;18955;51.224;8.482;2023-05-16T00:04:09;13.50;82.00
32506;DHT22;18955;51.224;8.482;2023-05-16T00:06:36;13.50;82.00
32506;DHT22;18955;51.224;8.482;2023-05-16T00:09:02;13.50;82.10
32506;DHT22;18955;51.224;8.482;2023-05-16T00:11:29;13.40;82.00
32506;DHT22;18955;51.224;8.482;2023-05-16T00:13:55;13.40;82.00
32506;DHT22;18955;51.224;8.482;2023-05-16T00:16:22;13.40;82.00
32506;DHT22;18955;51.224;8.482;2023-05-16T00:18:50;13.40;82.00
32506;DHT22;18955;51.224;8.482;2023-05-16T00:21:17;13.40;82.10
32506;DHT22;18955;51.224;8.482;2023-05-16T00:23:43;13.30;82.20
32506;DHT22;18955;51.224;8.482;2023-05-16T00:26:10;13.30;82.10
32506;DHT22;18955;51.224;8.482;2023-05-16T00:28:38;13.30;82.00
32506;DHT22;18955;51.224;8.482;2023-05-16T00:31:04;13.20;82.00
32506;DHT22;18955;51.224;8.482;2023-05-16T00:33:32;13.30;82.00
32506;DHT22;18955;51.224;8.482;2023-05-16T00:35:58;13.30;82.00
32506;DHT22;18955;51.224;8.482;2023-05-16T00:38:24;13.20;82.00
32506;DHT22;18955;51.224;8.482;2023-05-16T00:40:51;13.20;82.10
32506;DHT22;18955;51.224;8.482;2023-05-16T00:43:17;13.20;82.10
32506;DHT22;18955;51.224;8.482;2023-05-16T00:45:44;13.20;82.10
32506;DHT22;18955;51.224;8.482;2023-05-16T00:48:11;13.20;82.10
32506;DHT22;18955;51.224;8.482;2023-05-16T00:50:39;13.20;82.00
32506;DHT22;18955;51.224;8.482;2023-05-16T00:53:05;13.20;82.60
32506;DHT22;18955;51.224;8.482;2023-05-16T00:55:31;13.20;82.00
32506;DHT22;18955;51.224;8.482;2023-05-16T00:58:00;13.10;82.00
32506;DHT22;18955;51.224;8.482;2023-05-16T01:00:26;13.10;82.00
32506;DHT22;18955;51.224;8.482;2023-05-16T01:02:52;13.10;82.00
32506;DHT22;18955;51.224;8.482;2023-05-16T01:05:19;13.10;82.10
32506;DHT22;18955;51.224;8.482;2023-05-16T01:07:46;13.10;82.10
32506;DHT22;18955;51.224;8.482;2023-05-16T01:10:12;13.10;82.20
32506;DHT22;18955;51.224;8.482;2023-05-16T01:13:20;13.10;82.30
32506;DHT22;18955;51.224;8.482;2023-05-16T01:15:49;13.00;82.00
32506;DHT22;18955;51.224;8.482;2023-05-16T01:21:04;13.00;82.00
32506;DHT22;18955;51.224;8.482;2023-05-16T01:23:52;13.00;82.40
32506;DHT22;18955;51.224;8.482;2023-05-16T01:28:51;13.00;82.10
32506;DHT22;18955;51.224;8.482;2023-05-16T01:31:19;12.90;82.10
32506;DHT22;18955;51.224;8.482;2023-05-16T01:33:45;12.90;82.10
32506;DHT22;18955;51.224;8.482;2023-05-16T01:36:14;12.90;82.10
32506;DHT22;18955;51.224;8.482;2023-05-16T01:41:24;12.90;82.10
32506;DHT22;18955;51.224;8.482;2023-05-16T01:44:01;12.90;82.00
32506;DHT22;18955;51.224;8.482;2023-05-16T01:46:32;12.80;82.00
32506;DHT22;18955;51.224;8.482;2023-05-16T01:49:19;12.80;82.00
32506;DHT22;18955;51.224;8.482;2023-05-16T01:51:51;12.80;82.00
32506;DHT22;18955;51.224;8.482;2023-05-16T01:54:20;12.80;82.10
32506;DHT22;18955;51.224;8.482;2023-05-16T01:56:54;12.70;82.10
32506;DHT22;18955;51.224;8.482;2023-05-16T01:59:23;12.70;82.60
32506;DHT22;18955;51.224;8.482;2023-05-16T02:01:53;12.70;82.10
32506;DHT22;18955;51.224;8.482;2023-05-16T02:04:20;12.70;82.00
32506;DHT22;18955;51.224;8.482;2023-05-16T02:06:47;12.70;82.00
32506;DHT22;18955;51.224;8.482;2023-05-16T02:09:16;12.70;82.00
32506;DHT22;18955;51.224;8.482;2023-05-16T02:11:42;12.70;82.00
32506;DHT22;18955;51.224;8.482;2023-05-16T02:14:08;12.70;82.00
32506;DHT22;18955;51.224;8.482;2023-05-16T02:16:35;12.60;82.00
32506;DHT22;18955;51.224;8.482;2023-05-16T02:19:02;12.60;82.00
32506;DHT22;18955;51.224;8.482;2023-05-16T02:21:28;12.60;82.10
32506;DHT22;18955;51.224;8.482;2023-05-16T02:23:54;12.60;82.10
32506;DHT22;18955;51.224;8.482;2023-05-16T02:26:20;12.60;82.10
32506;DHT22;18955;51.224;8.482;2023-05-16T02:28:46;12.60;82.10
32506;DHT22;18955;51.224;8.482;2023-05-16T02:31:31;12.50;82.00
32506;DHT22;18955;51.224;8.482;2023-05-16T02:33:59;12.50;82.00
32506;DHT22;18955;51.224;8.482;2023-05-16T02:36:26;12.50;82.00
32506;DHT22;18955;51.224;8.482;2023-05-16T02:38:53;12.50;82.00
32506;DHT22;18955;51.224;8.482;2023-05-16T02:41:21;12.50;82.00
32506;DHT22;18955;51.224;8.482;2023-05-16T02:43:48;12.40;82.00
32506;DHT22;18955;51.224;8.482;2023-05-16T02:46:29;12.40;82.00
32506;DHT22;18955;51.224;8.482;2023-05-16T02:48:58;12.40;82.00
32506;DHT22;18955;51.224;8.482;2023-05-16T02:51:26;12.40;82.10
32506;DHT22;18955;51.224;8.482;2023-05-16T02:53:53;12.40;82.00
32506;DHT22;18955;51.224;8.482;2023-05-16T02:56:22;12.40;82.00
32506;DHT22;18955;51.224;8.482;2023-05-16T02:58:48;12.40;82.00
32506;DHT22;18955;51.224;8.482;2023-05-16T03:01:15;12.30;82.00
32506;DHT22;18955;51.224;8.482;2023-05-16T03:03:41;12.30;82.00
32506;DHT22;18955;51.224;8.482;2023-05-16T03:06:07;12.30;82.00
32506;DHT22;18955;51.224;8.482;2023-05-16T03:08:34;12.30;82.10
32506;DHT22;18955;51.224;8.482;2023-05-16T03:11:00;12.30;82.10
32506;DHT22;18955;51.224;8.482;2023-05-16T03:13:26;12.20;82.00
32506;DHT22;18955;51.224;8.482;2023-05-16T03:15:57;12.20;82.10
32506;DHT22;18955;51.224;8.482;2023-05-16T03:18:23;12.30;82.10
32506;DHT22;18955;51.224;8.482;2023-05-16T03:20:49;12.20;82.30
32506;DHT22;18955;51.224;8.482;2023-05-16T03:23:20;12.20;81.90
32506;DHT22;18955;51.224;8.482;2023-05-16T03:25:47;12.20;82.10
32506;DHT22;18955;51.224;8.482;2023-05-16T03:28:15;12.10;82.00
32506;DHT22;18955;51.224;8.482;2023-05-16T03:30:41;12.10;82.10
32506;DHT22;18955;51.224;8.482;2023-05-16T03:33:08;12.10;82.20
32506;DHT22;18955;51.224;8.482;2023-05-16T03:35:35;12.10;82.10
32506;DHT22;18955;51.224;8.482;2023-05-16T03:38:02;12.10;82.10
32506;DHT22;18955;51.224;8.482;2023-05-16T03:40:28;12.10;82.20
32506;DHT22;18955;51.224;8.482;2023-05-16T03:42:54;12.00;82.10
32506;DHT22;18955;51.224;8.482;2023-05-16T03:45:20;12.00;82.00
32506;DHT22;18955;51.224;8.482;2023-05-16T03:47:50;12.00;82.00
32506;DHT22;18955;51.224;8.482;2023-05-16T03:50:17;12.00;82.10
32506;DHT22;18955;51.224;8.482;2023-05-16T03:52:44;12.00;82.10
32506;DHT22;18955;51.224;8.482;2023-05-16T03:55:10;12.00;82.10
32506;DHT22;18955;51.224;8.482;2023-05-16T03:57:39;11.90;82.00
32506;DHT22;18955;51.224;8.482;2023-05-16T04:00:05;11.90;82.20
32506;DHT22;18955;51.224;8.482;2023-05-16T04:02:40;11.90;82.10
32506;DHT22;18955;51.224;8.482;2023-05-16T04:05:08;11.90;82.10
32506;DHT22;18955;51.224;8.482;2023-05-16T04:07:35;11.90;82.20
32506;DHT22;18955;51.224;8.482;2023-05-16T04:10:02;11.90;82.10
32506;DHT22;18955;51.224;8.482;2023-05-16T04:12:29;11.90;82.00
32506;DHT22;18955;51.224;8.482;2023-05-16T04:14:55;11.80;82.00
32506;DHT22;18955;51.224;8.482;2023-05-16T04:17:21;11.80;82.00
32506;DHT22;18955;51.224;8.482;2023-05-16T04:19:48;11.80;82.00
32506;DHT22;18955;51.224;8.482;2023-05-16T04:22:14;11.80;82.10
32506;DHT22;18955;51.224;8.482;2023-05-16T04:24:40;11.80;82.00
32506;DHT22;18955;51.224;8.482;2023-05-16T04:27:06;11.70;82.00
32506;DHT22;18955;51.224;8.482;2023-05-16T04:29:34;11.70;82.10
32506;DHT22;18955;51.224;8.482;2023-05-16T04:32:01;11.70;82.10
32506;DHT22;18955;51.224;8.482;2023-05-16T04:34:27;11.70;82.10
32506;DHT22;18955;51.224;8.482;2023-05-16T04:36:53;11.70;82.00
32506;DHT22;18955;51.224;8.482;2023-05-16T04:39:20;11.70;82.00
32506;DHT22;18955;51.224;8.482;2023-05-16T04:41:46;11.70;82.00
32506;DHT22;18955;51.224;8.482;2023-05-16T04:44:12;11.60;82.00
32506;DHT22;18955;51.224;8.482;2023-05-16T04:46:39;11.60;81.90
32506;DHT22;18955;51.224;8.482;2023-05-16T04:49:06;11.60;82.00
32506;DHT22;18955;51.224;8.482;2023-05-16T04:51:33;11.60;82.10
32506;DHT22;18955;51.224;8.482;2023-05-16T04:53:59;11.60;82.10
32506;DHT22;18955;51.224;8.482;2023-05-16T04:56:25;11.50;82.00
32506;DHT22;18955;51.224;8.482;2023-05-16T04:58:52;11.50;82.00
32506;DHT22;18955;51.224;8.482;2023-05-16T05:01:19;11.50;81.90
32506;DHT22;18955;51.224;8.482;2023-05-16T05:03:45;11.50;81.90
32506;DHT22;18955;51.224;8.482;2023-05-16T05:06:12;11.50;81.80
32506;DHT22;18955;51.224;8.482;2023-05-16T05:08:38;11.50;81.90
32506;DHT22;18955;51.224;8.482;2023-05-16T05:11:04;11.40;81.90
32506;DHT22;18955;51.224;8.482;2023-05-16T05:13:30;11.40;81.90
32506;DHT22;18955;51.224;8.482;2023-05-16T05:15:57;11.40;81.90
32506;DHT22;18955;51.224;8.482;2023-05-16T05:18:23;11.40;82.00
32506;DHT22;18955;51.224;8.482;2023-05-16T05:20:49;11.40;81.90
32506;DHT22;18955;51.224;8.482;2023-05-16T05:23:17;11.40;81.90
32506;DHT22;18955;51.224;8.482;2023-05-16T05:25:44;11.30;81.90
32506;DHT22;18955;51.224;8.482;2023-05-16T05:28:11;11.30;81.80
32506;DHT22;18955;51.224;8.482;2023-05-16T05:30:37;11.30;81.80
32506;DHT22;18955;51.224;8.482;2023-05-16T05:33:03;11.30;81.80
32506;DHT22;18955;51.224;8.482;2023-05-16T05:35:29;11.30;81.80
32506;DHT22;18955;51.224;8.482;2023-05-16T05:37:55;11.30;81.90
32506;DHT22;18955;51.224;8.482;2023-05-16T05:40:22;11.20;81.80
32506;DHT22;18955;51.224;8.482;2023-05-16T05:42:48;11.20;81.80
32506;DHT22;18955;51.224;8.482;2023-05-16T05:45:14;11.20;81.80
32506;DHT22;18955;51.224;8.482;2023-05-16T05:47:41;11.20;81.80
32506;DHT22;18955;51.224;8.482;2023-05-16T05:50:08;11.10;81.80
32506;DHT22;18955;51.224;8.482;2023-05-16T05:52:37;11.10;81.80
32506;DHT22;18955;51.224;8.482;2023-05-16T05:55:03;11.10;81.80
32506;DHT22;18955;51.224;8.482;2023-05-16T05:57:29;11.10;81.80
32506;DHT22;18955;51.224;8.482;2023-05-16T05:59:56;11.10;81.70
32506;DHT22;18955;51.224;8.482;2023-05-16T06:02:22;11.10;81.80
32506;DHT22;18955;51.224;8.482;2023-05-16T06:04:48;11.00;81.70
32506;DHT22;18955;51.224;8.482;2023-05-16T06:07:14;11.00;81.70
32506;DHT22;18955;51.224;8.482;2023-05-16T06:09:41;11.00;81.70
32506;DHT22;18955;51.224;8.482;2023-05-16T06:12:08;11.00;81.80
32506;DHT22;18955;51.224;8.482;2023-05-16T06:14:35;11.00;81.70
32506;DHT22;18955;51.224;8.482;2023-05-16T06:17:01;10.90;81.70
32506;DHT22;18955;51.224;8.482;2023-05-16T06:19:27;10.90;81.70
32506;DHT22;18955;51.224;8.482;2023-05-16T06:21:53;11.00;81.80
32506;DHT22;18955;51.224;8.482;2023-05-16T06:24:20;10.90;81.70
32506;DHT22;18955;51.224;8.482;2023-05-16T06:26:46;10.90;81.70
32506;DHT22;18955;51.224;8.482;2023-05-16T06:29:15;10.90;81.70
32506;DHT22;18955;51.224;8.482;2023-05-16T06:31:43;10.90;81.80
32506;DHT22;18955;51.224;8.482;2023-05-16T06:34:09;10.90;81.70
32506;DHT22;18955;51.224;8.482;2023-05-16T06:36:36;10.80;81.70
32506;DHT22;18955;51.224;8.482;2023-05-16T06:39:02;10.80;81.70
32506;DHT22;18955;51.224;8.482;2023-05-16T06:41:29;10.80;81.70
32506;DHT22;18955;51.224;8.482;2023-05-16T06:43:56;10.80;81.70
32506;DHT22;18955;51.224;8.482;2023-05-16T06:46:22;10.80;81.70
32506;DHT22;18955;51.224;8.482;2023-05-16T06:48:48;10.80;81.80
32506;DHT22;18955;51.224;8.482;2023-05-16T06:51:14;10.70;81.60
32506;DHT22;18955;51.224;8.482;2023-05-16T06:53:41;10.70;81.60
32506;DHT22;18955;51.224;8.482;2023-05-16T06:56:07;10.70;81.40
32506;DHT22;18955;51.224;8.482;2023-05-16T06:58:33;10.70;81.60
32506;DHT22;18955;51.224;8.482;2023-05-16T07:00:59;10.70;81.60
32506;DHT22;18955;51.224;8.482;2023-05-16T07:03:26;10.70;81.60
32506;DHT22;18955;51.224;8.482;2023-05-16T07:05:52;10.70;81.60
32506;DHT22;18955;51.224;8.482;2023-05-16T07:08:18;10.70;81.60
32506;DHT22;18955;51.224;8.482;2023-05-16T07:10:44;10.60;81.60
32506;DHT22;18955;51.224;8.482;2023-05-16T07:13:11;10.60;81.60
32506;DHT22;18955;51.224;8.482;2023-05-16T07:15:37;10.60;81.70
32506;DHT22;18955;51.224;8.482;2023-05-16T07:18:04;10.60;81.60
32506;DHT22;18955;51.224;8.482;2023-05-16T07:20:30;10.60;81.60
32506;DHT22;18955;51.224;8.482;2023-05-16T07:22:56;10.60;81.60
32506;DHT22;18955;51.224;8.482;2023-05-16T07:25:23;10.50;81.50
32506;DHT22;18955;51.224;8.482;2023-05-16T07:27:49;10.50;81.60
32506;DHT22;18955;51.224;8.482;2023-05-16T07:30:16;10.50;81.50
32506;DHT22;18955;51.224;8.482;2023-05-16T07:32:42;10.50;81.50
32506;DHT22;18955;51.224;8.482;2023-05-16T07:35:09;10.50;81.60
32506;DHT22;18955;51.224;8.482;2023-05-16T07:37:35;10.50;81.50
32506;DHT22;18955;51.224;8.482;2023-05-16T07:40:02;10.40;81.50
32506;DHT22;18955;51.224;8.482;2023-05-16T07:42:30;10.40;81.50
32506;DHT22;18955;51.224;8.482;2023-05-16T07:44:56;10.40;81.50
32506;DHT22;18955;51.224;8.482;2023-05-16T07:47:22;10.40;81.50
32506;DHT22;18955;51.224;8.482;2023-05-16T07:49:49;10.40;81.50
32506;DHT22;18955;51.224;8.482;2023-05-16T07:52:15;10.40;81.50
32506;DHT22;18955;51.224;8.482;2023-05-16T07:54:41;10.40;81.50
32506;DHT22;18955;51.224;8.482;2023-05-16T07:57:07;10.40;81.50
32506;DHT22;18955;51.224;8.482;2023-05-16T07:59:33;10.40;81.50
32506;DHT22;18955;51.224;8.482;2023-05-16T08:02:00;10.40;81.40
32506;DHT22;18955;51.224;8.482;2023-05-16T08:04:26;10.40;81.40
32506;DHT22;18955;51.224;8.482;2023-05-16T08:06:52;10.40;81.20
32506;DHT22;18955;51.224;8.482;2023-05-16T08:09:18;10.40;81.20
32506;DHT22;18955;51.224;8.482;2023-05-16T08:11:45;10.40;81.10
32506;DHT22;18955;51.224;8.482;2023-05-16T08:14:11;10.50;81.20
32506;DHT22;18955;51.224;8.482;2023-05-16T08:16:38;10.40;81.20
32506;DHT22;18955;51.224;8.482;2023-05-16T08:19:04;10.40;81.20
32506;DHT22;18955;51.224;8.482;2023-05-16T08:21:30;10.40;81.20
32506;DHT22;18955;51.224;8.482;2023-05-16T08:23:56;10.40;81.30
32506;DHT22;18955;51.224;8.482;2023-05-16T08:26:23;10.40;81.30
32506;DHT22;18955;51.224;8.482;2023-05-16T08:28:49;10.40;81.30
32506;DHT22;18955;51.224;8.482;2023-05-16T08:31:16;10.40;81.30
32506;DHT22;18955;51.224;8.482;2023-05-16T08:33:42;10.40;81.20
32506;DHT22;18955;51.224;8.482;2023-05-16T08:36:08;10.40;81.20
32506;DHT22;18955;51.224;8.482;2023-05-16T08:38:35;10.40;81.20
32506;DHT22;18955;51.224;8.482;2023-05-16T08:41:01;10.30;81.20
32506;DHT22;18955;51.224;8.482;2023-05-16T08:43:27;10.30;81.20
32506;DHT22;18955;51.224;8.482;2023-05-16T08:45:54;10.30;81.20
32506;DHT22;18955;51.224;8.482;2023-05-16T08:48:22;10.30;81.20
32506;DHT22;18955;51.224;8.482;2023-05-16T08:50:49;10.40;81.20
32506;DHT22;18955;51.224;8.482;2023-05-16T08:53:21;10.30;81.10
32506;DHT22;18955;51.224;8.482;2023-05-16T08:55:48;10.40;81.10
32506;DHT22;18955;51.224;8.482;2023-05-16T08:58:16;10.40;81.00
32506;DHT22;18955;51.224;8.482;2023-05-16T09:00:43;10.40;81.10
32506;DHT22;18955;51.224;8.482;2023-05-16T09:03:09;10.40;81.00
32506;DHT22;18955;51.224;8.482;2023-05-16T09:05:36;10.30;80.90
32506;DHT22;18955;51.224;8.482;2023-05-16T09:08:03;10.40;81.00
32506;DHT22;18955;51.224;8.482;2023-05-16T09:10:29;10.40;81.00
32506;DHT22;18955;51.224;8.482;2023-05-16T09:12:55;10.40;81.00
32506;DHT22;18955;51.224;8.482;2023-05-16T09:15:21;10.40;80.90
32506;DHT22;18955;51.224;8.482;2023-05-16T09:17:47;10.40;80.90
32506;DHT22;18955;51.224;8.482;2023-05-16T09:20:15;10.40;80.80
32506;DHT22;18955;51.224;8.482;2023-05-16T09:22:55;10.40;80.90
32506;DHT22;18955;51.224;8.482;2023-05-16T09:25:22;10.40;80.90
32506;DHT22;18955;51.224;8.482;2023-05-16T09:27:53;10.40;80.90
32506;DHT22;18955;51.224;8.482;2023-05-16T09:30:27;10.40;80.90
32506;DHT22;18955;51.224;8.482;2023-05-16T09:32:54;10.40;80.80
32506;DHT22;18955;51.224;8.482;2023-05-16T09:35:21;10.40;80.70
32506;DHT22;18955;51.224;8.482;2023-05-16T09:37:48;10.40;80.70
32506;DHT22;18955;51.224;8.482;2023-05-16T09:40:15;10.40;80.70
32506;DHT22;18955;51.224;8.482;2023-05-16T09:42:42;10.40;80.70
32506;DHT22;18955;51.224;8.482;2023-05-16T09:45:12;10.40;80.70
32506;DHT22;18955;51.224;8.482;2023-05-16T09:47:39;10.40;80.70
32506;DHT22;18955;51.224;8.482;2023-05-16T09:50:14;10.40;80.80
32506;DHT22;18955;51.224;8.482;2023-05-16T09:52:41;10.40;80.70
32506;DHT22;18955;51.224;8.482;2023-05-16T09:55:09;10.40;80.80
32506;DHT22;18955;51.224;8.482;2023-05-16T09:57:38;10.40;80.80
32506;DHT22;18955;51.224;8.482;2023-05-16T10:00:12;10.40;80.80
32506;DHT22;18955;51.224;8.482;2023-05-16T10:02:38;10.40;80.70
32506;DHT22;18955;51.224;8.482;2023-05-16T10:05:05;10.40;80.60
32506;DHT22;18955;51.224;8.482;2023-05-16T10:07:32;10.40;80.60
32506;DHT22;18955;51.224;8.482;2023-05-16T10:10:05;10.50;80.60
32506;DHT22;18955;51.224;8.482;2023-05-16T10:12:33;10.40;80.60
32506;DHT22;18955;51.224;8.482;2023-05-16T10:15:00;10.40;80.60
32506;DHT22;18955;51.224;8.482;2023-05-16T10:17:30;10.40;80.50
32506;DHT22;18955;51.224;8.482;2023-05-16T10:19:57;10.50;80.60
32506;DHT22;18955;51.224;8.482;2023-05-16T10:22:26;10.40;80.50
32506;DHT22;18955;51.224;8.482;2023-05-16T10:27:34;10.40;80.70
32506;DHT22;18955;51.224;8.482;2023-05-16T10:30:01;10.40;80.60
32506;DHT22;18955;51.224;8.482;2023-05-16T10:32:28;10.40;80.60
32506;DHT22;18955;51.224;8.482;2023-05-16T10:34:54;10.40;80.60
32506;DHT22;18955;51.224;8.482;2023-05-16T10:37:22;10.40;80.60
32506;DHT22;18955;51.224;8.482;2023-05-16T10:39:50;10.50;80.40
32506;DHT22;18955;51.224;8.482;2023-05-16T10:42:17;10.40;80.40
32506;DHT22;18955;51.224;8.482;2023-05-16T10:44:45;10.40;80.50
32506;DHT22;18955;51.224;8.482;2023-05-16T10:47:11;10.40;80.60
32506;DHT22;18955;51.224;8.482;2023-05-16T10:49:40;10.40;80.70
32506;DHT22;18955;51.224;8.482;2023-05-16T10:52:12;10.40;80.60
32506;DHT22;18955;51.224;8.482;2023-05-16T10:54:42;10.40;80.50
32506;DHT22;18955;51.224;8.482;2023-05-16T10:57:11;10.50;80.60
32506;DHT22;18955;51.224;8.482;2023-05-16T11:04:54;10.40;80.60
32506;DHT22;18955;51.224;8.482;2023-05-16T11:07:23;10.40;80.60
32506;DHT22;18955;51.224;8.482;2023-05-16T11:10:04;10.40;80.60
32506;DHT22;18955;51.224;8.482;2023-05-16T11:12:45;10.40;80.50
32506;DHT22;18955;51.224;8.482;2023-05-16T11:15:25;10.50;80.60
32506;DHT22;18955;51.224;8.482;2023-05-16T11:18:08;10.50;80.60
32506;DHT22;18955;51.224;8.482;2023-05-16T11:20:37;10.40;80.50
32506;DHT22;18955;51.224;8.482;2023-05-16T11:25:44;10.50;80.50
32506;DHT22;18955;51.224;8.482;2023-05-16T11:28:13;10.50;80.60
32506;DHT22;18955;51.224;8.482;2023-05-16T11:30:47;10.50;80.60
32506;DHT22;18955;51.224;8.482;2023-05-16T11:33:18;10.40;80.50
32506;DHT22;18955;51.224;8.482;2023-05-16T11:35:59;10.40;80.50
32506;DHT22;18955;51.224;8.482;2023-05-16T11:38:29;10.50;80.50
32506;DHT22;18955;51.224;8.482;2023-05-16T11:41:04;10.50;80.60
32506;DHT22;18955;51.224;8.482;2023-05-16T11:43:42;10.50;80.60
32506;DHT22;18955;51.224;8.482;2023-05-16T11:46:12;10.50;80.60
32506;DHT22;18955;51.224;8.482;2023-05-16T11:48:39;10.50;80.60
32506;DHT22;18955;51.224;8.482;2023-05-16T11:51:06;10.50;80.60
32506;DHT22;18955;51.224;8.482;2023-05-16T11:53:33;10.50;80.60
32506;DHT22;18955;51.224;8.482;2023-05-16T11:55:59;10.50;80.60
32506;DHT22;18955;51.224;8.482;2023-05-16T11:58:27;10.50;80.60
32506;DHT22;18955;51.224;8.482;2023-05-16T12:00:53;10.50;80.60
32506;DHT22;18955;51.224;8.482;2023-05-16T12:03:20;10.50;80.60
32506;DHT22;18955;51.224;8.482;2023-05-16T12:05:52;10.50;80.40
32506;DHT22;18955;51.224;8.482;2023-05-16T12:08:20;10.60;80.30
32506;DHT22;18955;51.224;8.482;2023-05-16T12:10:52;10.50;80.40
32506;DHT22;18955;51.224;8.482;2023-05-16T12:13:19;10.50;80.30
32506;DHT22;18955;51.224;8.482;2023-05-16T12:15:47;10.60;80.40
32506;DHT22;18955;51.224;8.482;2023-05-16T12:18:14;10.50;80.50
32506;DHT22;18955;51.224;8.482;2023-05-16T12:20:42;10.60;80.60
32506;DHT22;18955;51.224;8.482;2023-05-16T12:23:10;10.60;80.60
32506;DHT22;18955;51.224;8.482;2023-05-16T12:25:37;10.60;80.60
32506;DHT22;18955;51.224;8.482;2023-05-16T12:28:11;10.50;80.60
32506;DHT22;18955;51.224;8.482;2023-05-16T12:30:40;10.60;80.50
32506;DHT22;18955;51.224;8.482;2023-05-16T12:33:12;10.60;80.50
32506;DHT22;18955;51.224;8.482;2023-05-16T12:35:43;10.60;80.40
32506;DHT22;18955;51.224;8.482;2023-05-16T12:38:11;10.60;80.30
32506;DHT22;18955;51.224;8.482;2023-05-16T12:40:39;10.60;80.10
32506;DHT22;18955;51.224;8.482;2023-05-16T12:43:18;10.60;80.10
32506;DHT22;18955;51.224;8.482;2023-05-16T12:45:51;10.60;80.10
32506;DHT22;18955;51.224;8.482;2023-05-16T12:48:21;10.60;80.10
32506;DHT22;18955;51.224;8.482;2023-05-16T12:50:48;10.60;80.00
32506;DHT22;18955;51.224;8.482;2023-05-16T12:53:16;10.60;79.90
32506;DHT22;18955;51.224;8.482;2023-05-16T12:55:43;10.60;80.00
32506;DHT22;18955;51.224;8.482;2023-05-16T12:58:10;10.60;80.00
32506;DHT22;18955;51.224;8.482;2023-05-16T13:00:36;10.60;80.00
32506;DHT22;18955;51.224;8.482;2023-05-16T13:03:04;10.60;80.10
32506;DHT22;18955;51.224;8.482;2023-05-16T13:05:31;10.60;80.00
32506;DHT22;18955;51.224;8.482;2023-05-16T13:07:57;10.70;80.10
32506;DHT22;18955;51.224;8.482;2023-05-16T13:10:23;10.70;80.00
32506;DHT22;18955;51.224;8.482;2023-05-16T13:12:50;10.70;80.00
32506;DHT22;18955;51.224;8.482;2023-05-16T13:15:17;10.70;80.10
32506;DHT22;18955;51.224;8.482;2023-05-16T13:17:43;10.70;80.00
32506;DHT22;18955;51.224;8.482;2023-05-16T13:20:09;10.70;80.00
32506;DHT22;18955;51.224;8.482;2023-05-16T13:22:40;10.70;79.90
32506;DHT22;18955;51.224;8.482;2023-05-16T13:25:07;10.70;80.00
32506;DHT22;18955;51.224;8.482;2023-05-16T13:27:33;10.80;80.00
32506;DHT22;18955;51.224;8.482;2023-05-16T13:30:00;10.80;79.40
32506;DHT22;18955;51.224;8.482;2023-05-16T13:32:26;10.80;79.40
32506;DHT22;18955;51.224;8.482;2023-05-16T13:34:53;10.80;79.50
32506;DHT22;18955;51.224;8.482;2023-05-16T13:37:19;10.90;79.70
32506;DHT22;18955;51.224;8.482;2023-05-16T13:39:46;10.90;79.80
32506;DHT22;18955;51.224;8.482;2023-05-16T13:42:12;10.90;79.40
32506;DHT22;18955;51.224;8.482;2023-05-16T13:44:38;10.90;79.60
32506;DHT22;18955;51.224;8.482;2023-05-16T13:47:04;10.90;79.90
32506;DHT22;18955;51.224;8.482;2023-05-16T13:49:31;10.90;79.90
32506;DHT22;18955;51.224;8.482;2023-05-16T13:51:57;10.90;79.90
32506;DHT22;18955;51.224;8.482;2023-05-16T13:54:23;10.90;79.90
32506;DHT22;18955;51.224;8.482;2023-05-16T13:56:50;10.90;80.00
32506;DHT22;18955;51.224;8.482;2023-05-16T13:59:16;10.90;80.00
32506;DHT22;18955;51.224;8.482;2023-05-16T14:01:42;10.90;79.90
32506;DHT22;18955;51.224;8.482;2023-05-16T14:04:09;10.90;79.80
32506;DHT22;18955;51.224;8.482;2023-05-16T14:06:35;10.90;80.00
32506;DHT22;18955;51.224;8.482;2023-05-16T14:09:02;10.90;80.10
32506;DHT22;18955;51.224;8.482;2023-05-16T14:11:29;10.90;80.20
32506;DHT22;18955;51.224;8.482;2023-05-16T14:13:56;10.90;80.20
32506;DHT22;18955;51.224;8.482;2023-05-16T14:16:22;10.90;80.10
32506;DHT22;18955;51.224;8.482;2023-05-16T14:18:48;11.00;80.30
32506;DHT22;18955;51.224;8.482;2023-05-16T14:21:15;10.90;80.40
32506;DHT22;18955;51.224;8.482;2023-05-16T14:23:41;11.00;80.40
32506;DHT22;18955;51.224;8.482;2023-05-16T14:26:07;10.90;80.50
32506;DHT22;18955;51.224;8.482;2023-05-16T14:28:34;11.00;80.50
32506;DHT22;18955;51.224;8.482;2023-05-16T14:31:00;11.00;80.30
32506;DHT22;18955;51.224;8.482;2023-05-16T14:33:27;11.10;80.30
32506;DHT22;18955;51.224;8.482;2023-05-16T14:35:53;11.20;80.10
32506;DHT22;18955;51.224;8.482;2023-05-16T14:38:19;11.20;80.00
32506;DHT22;18955;51.224;8.482;2023-05-16T14:40:46;11.20;79.90
32506;DHT22;18955;51.224;8.482;2023-05-16T14:43:12;11.20;80.00
32506;DHT22;18955;51.224;8.482;2023-05-16T14:45:38;11.30;79.90
32506;DHT22;18955;51.224;8.482;2023-05-16T14:48:08;11.30;79.50
32506;DHT22;18955;51.224;8.482;2023-05-16T14:50:34;11.40;79.60
32506;DHT22;18955;51.224;8.482;2023-05-16T14:53:00;11.40;79.60
32506;DHT22;18955;51.224;8.482;2023-05-16T14:55:26;11.40;79.70
32506;DHT22;18955;51.224;8.482;2023-05-16T14:57:52;11.40;79.60
32506;DHT22;18955;51.224;8.482;2023-05-16T15:00:23;11.40;79.80
32506;DHT22;18955;51.224;8.482;2023-05-16T15:02:50;11.40;79.80
32506;DHT22;18955;51.224;8.482;2023-05-16T15:05:16;11.40;79.60
32506;DHT22;18955;51.224;8.482;2023-05-16T15:07:42;11.30;79.70
32506;DHT22;18955;51.224;8.482;2023-05-16T15:10:09;11.30;79.70
32506;DHT22;18955;51.224;8.482;2023-05-16T15:12:36;11.40;80.10
32506;DHT22;18955;51.224;8.482;2023-05-16T15:15:02;11.40;80.10
32506;DHT22;18955;51.224;8.482;2023-05-16T15:17:29;11.40;80.20
32506;DHT22;18955;51.224;8.482;2023-05-16T15:19:55;11.40;79.90
32506;DHT22;18955;51.224;8.482;2023-05-16T15:22:22;11.40;80.00
32506;DHT22;18955;51.224;8.482;2023-05-16T15:24:49;11.40;80.00
32506;DHT22;18955;51.224;8.482;2023-05-16T15:27:15;11.40;79.90
32506;DHT22;18955;51.224;8.482;2023-05-16T15:29:41;11.50;80.00
32506;DHT22;18955;51.224;8.482;2023-05-16T15:32:08;11.60;79.70
32506;DHT22;18955;51.224;8.482;2023-05-16T15:34:36;11.60;79.30
32506;DHT22;18955;51.224;8.482;2023-05-16T15:37:02;11.70;79.20
32506;DHT22;18955;51.224;8.482;2023-05-16T15:39:28;11.80;79.00
32506;DHT22;18955;51.224;8.482;2023-05-16T15:41:55;11.80;78.90
32506;DHT22;18955;51.224;8.482;2023-05-16T15:44:21;11.90;78.70
32506;DHT22;18955;51.224;8.482;2023-05-16T15:46:47;11.90;78.50
32506;DHT22;18955;51.224;8.482;2023-05-16T15:49:13;12.00;78.50
32506;DHT22;18955;51.224;8.482;2023-05-16T15:51:39;11.90;78.30